sensor_id;sensor_type;location;lat;lon;timestamp;temperature;humidity
85191;DHT22;75560;0.000;0.000;2024-01-30T00:00:51;18.90;49.50
85191;DHT22;75560;0.000;0.000;2024-01-30T00:03:17;18.90;49.40
85191;DHT22;75560;0.000;0.000;2024-01-30T00:05:43;18.90;49.40
85191;DHT22;75560;0.000;0.000;2024-01-30T00:08:08;18.80;49.40
85191;DHT22;75560;0.000;0.000;2024-01-30T00:10:34;18.90;49.50
85191;DHT22;75560;0.000;0.000;2024-01-30T00:12:59;18.90;49.50
85191;DHT22;75560;0.000;0.000;2024-01-30T00:15:25;18.90;49.50
85191;DHT22;75560;0.000;0.000;2024-01-30T00:17:51;18.90;49.50
85191;DHT22;75560;0.000;0.000;2024-01-30T00:20:17;18.90;49.50
85191;DHT22;75560;0.000;0.000;2024-01-30T00:22:43;19.00;49.40
85191;DHT22;75560;0.000;0.000;2024-01-30T00:25:09;18.90;49.40
85191;DHT22;75560;0.000;0.000;2024-01-30T00:27:35;18.90;49.50
85191;DHT22;75560;0.000;0.000;2024-01-30T00:30:00;18.90;49.40
85191;DHT22;75560;0.000;0.000;2024-01-30T00:32:27;18.90;49.50
85191;DHT22;75560;0.000;0.000;2024-01-30T00:34:53;18.90;49.50
85191;DHT22;75560;0.000;0.000;2024-01-30T00:37:18;18.90;49.60
85191;DHT22;75560;0.000;0.000;2024-01-30T00:39:44;18.90;49.50
85191;DHT22;75560;0.000;0.000;2024-01-30T00:42:09;19.00;49.40
85191;DHT22;75560;0.000;0.000;2024-01-30T00:44:35;18.90;49.50
85191;DHT22;75560;0.000;0.000;2024-01-30T00:47:04;18.90;49.50
85191;DHT22;75560;0.000;0.000;2024-01-30T00:49:30;18.90;49.50
85191;DHT22;75560;0.000;0.000;2024-01-30T00:51:55;18.90;49.40
85191;DHT22;75560;0.000;0.000;2024-01-30T00:54:21;18.90;49.40
85191;DHT22;75560;0.000;0.000;2024-01-30T00:56:46;18.90;49.40
85191;DHT22;75560;0.000;0.000;2024-01-30T00:59:12;18.90;49.50
85191;DHT22;75560;0.000;0.000;2024-01-30T01:01:37;18.90;49.50
85191;DHT22;75560;0.000;0.000;2024-01-30T01:04:03;18.90;49.50
85191;DHT22;75560;0.000;0.000;2024-01-30T01:06:28;18.90;49.50
85191;DHT22;75560;0.000;0.000;2024-01-30T01:08:54;18.90;49.60
85191;DHT22;75560;0.000;0.000;2024-01-30T01:11:19;18.80;49.70
85191;DHT22;75560;0.000;0.000;2024-01-30T01:13:45;18.80;49.70
85191;DHT22;75560;0.000;0.000;2024-01-30T01:16:10;18.90;49.60
85191;DHT22;75560;0.000;0.000;2024-01-30T01:18:36;18.90;49.80
85191;DHT22;75560;0.000;0.000;2024-01-30T01:21:02;18.80;49.70
85191;DHT22;75560;0.000;0.000;2024-01-30T01:23:27;18.80;49.80
85191;DHT22;75560;0.000;0.000;2024-01-30T01:25:53;18.70;49.90
85191;DHT22;75560;0.000;0.000;2024-01-30T01:28:19;18.70;49.90
85191;DHT22;75560;0.000;0.000;2024-01-30T01:30:46;18.70;49.90
85191;DHT22;75560;0.000;0.000;2024-01-30T01:33:11;18.70;49.90
85191;DHT22;75560;0.000;0.000;2024-01-30T01:35:39;18.70;50.00
85191;DHT22;75560;0.000;0.000;2024-01-30T01:38:05;18.70;50.00
85191;DHT22;75560;0.000;0.000;2024-01-30T01:40:31;18.70;49.90
85191;DHT22;75560;0.000;0.000;2024-01-30T01:42:56;18.70;49.80
85191;DHT22;75560;0.000;0.000;2024-01-30T01:45:22;18.80;49.80
85191;DHT22;75560;0.000;0.000;2024-01-30T01:47:50;18.80;49.70
85191;DHT22;75560;0.000;0.000;2024-01-30T01:50:16;18.80;49.70
85191;DHT22;75560;0.000;0.000;2024-01-30T01:52:47;18.80;49.60
85191;DHT22;75560;0.000;0.000;2024-01-30T01:55:14;18.80;49.70
85191;DHT22;75560;0.000;0.000;2024-01-30T01:57:40;18.80;49.70
85191;DHT22;75560;0.000;0.000;2024-01-30T02:00:07;18.80;49.60
85191;DHT22;75560;0.000;0.000;2024-01-30T02:02:35;18.80;49.70
85191;DHT22;75560;0.000;0.000;2024-01-30T02:05:01;18.70;49.80
85191;DHT22;75560;0.000;0.000;2024-01-30T02:07:30;18.70;49.70
85191;DHT22;75560;0.000;0.000;2024-01-30T02:09:56;18.80;49.70
85191;DHT22;75560;0.000;0.000;2024-01-30T02:12:21;18.70;49.80
85191;DHT22;75560;0.000;0.000;2024-01-30T02:14:48;18.80;49.60
85191;DHT22;75560;0.000;0.000;2024-01-30T02:17:16;18.80;49.70
85191;DHT22;75560;0.000;0.000;2024-01-30T02:19:42;18.80;49.70
85191;DHT22;75560;0.000;0.000;2024-01-30T02:22:08;18.80;49.70
85191;DHT22;75560;0.000;0.000;2024-01-30T02:24:34;18.80;49.60
85191;DHT22;75560;0.000;0.000;2024-01-30T02:27:00;18.80;49.70
85191;DHT22;75560;0.000;0.000;2024-01-30T02:29:25;18.80;49.70
85191;DHT22;75560;0.000;0.000;2024-01-30T02:31:52;18.80;49.70
85191;DHT22;75560;0.000;0.000;2024-01-30T02:34:19;18.80;49.60
85191;DHT22;75560;0.000;0.000;2024-01-30T02:36:45;18.80;49.70
85191;DHT22;75560;0.000;0.000;2024-01-30T02:39:10;18.80;49.80
85191;DHT22;75560;0.000;0.000;2024-01-30T02:41:36;18.80;49.70
85191;DHT22;75560;0.000;0.000;2024-01-30T02:44:02;18.80;49.70
85191;DHT22;75560;0.000;0.000;2024-01-30T02:46:28;18.80;49.60
85191;DHT22;75560;0.000;0.000;2024-01-30T02:48:54;18.80;49.70
85191;DHT22;75560;0.000;0.000;2024-01-30T02:51:20;18.80;49.60
85191;DHT22;75560;0.000;0.000;2024-01-30T02:53:45;18.80;49.60
85191;DHT22;75560;0.000;0.000;2024-01-30T02:56:11;18.80;49.60
85191;DHT22;75560;0.000;0.000;2024-01-30T02:58:39;18.80;49.70
85191;DHT22;75560;0.000;0.000;2024-01-30T03:01:06;18.90;49.80
85191;DHT22;75560;0.000;0.000;2024-01-30T03:03:31;18.80;49.70
85191;DHT22;75560;0.000;0.000;2024-01-30T03:05:57;18.80;49.60
85191;DHT22;75560;0.000;0.000;2024-01-30T03:08:23;18.90;49.70
85191;DHT22;75560;0.000;0.000;2024-01-30T03:10:48;18.80;49.70
85191;DHT22;75560;0.000;0.000;2024-01-30T03:13:14;18.80;49.50
85191;DHT22;75560;0.000;0.000;2024-01-30T03:15:40;18.80;49.70
85191;DHT22;75560;0.000;0.000;2024-01-30T03:18:05;18.80;49.70
85191;DHT22;75560;0.000;0.000;2024-01-30T03:20:31;18.80;49.80
85191;DHT22;75560;0.000;0.000;2024-01-30T03:22:59;18.80;49.70
85191;DHT22;75560;0.000;0.000;2024-01-30T03:25:25;18.80;49.70
85191;DHT22;75560;0.000;0.000;2024-01-30T03:27:51;18.80;49.70
85191;DHT22;75560;0.000;0.000;2024-01-30T03:30:18;18.80;49.80
85191;DHT22;75560;0.000;0.000;2024-01-30T03:32:43;18.80;49.80
85191;DHT22;75560;0.000;0.000;2024-01-30T03:35:09;18.70;50.70
85191;DHT22;75560;0.000;0.000;2024-01-30T03:37:35;18.80;50.00
85191;DHT22;75560;0.000;0.000;2024-01-30T03:40:02;18.80;49.90
85191;DHT22;75560;0.000;0.000;2024-01-30T03:42:28;18.80;49.70
85191;DHT22;75560;0.000;0.000;2024-01-30T03:44:54;18.80;49.70
85191;DHT22;75560;0.000;0.000;2024-01-30T03:47:21;18.70;49.90
85191;DHT22;75560;0.000;0.000;2024-01-30T03:49:46;18.70;49.90
85191;DHT22;75560;0.000;0.000;2024-01-30T03:52:12;18.70;50.00
85191;DHT22;75560;0.000;0.000;2024-01-30T03:54:38;18.70;50.00
85191;DHT22;75560;0.000;0.000;2024-01-30T03:57:03;18.70;50.00
85191;DHT22;75560;0.000;0.000;2024-01-30T03:59:29;18.70;50.00
85191;DHT22;75560;0.000;0.000;2024-01-30T04:01:55;18.70;50.00
85191;DHT22;75560;0.000;0.000;2024-01-30T04:04:20;18.70;50.10
85191;DHT22;75560;0.000;0.000;2024-01-30T04:06:46;18.70;50.00
85191;DHT22;75560;0.000;0.000;2024-01-30T04:09:15;18.70;50.00
85191;DHT22;75560;0.000;0.000;2024-01-30T04:11:41;18.70;50.00
85191;DHT22;75560;0.000;0.000;2024-01-30T04:14:08;18.70;49.90
85191;DHT22;75560;0.000;0.000;2024-01-30T04:16:33;18.70;49.90
85191;DHT22;75560;0.000;0.000;2024-01-30T04:18:59;18.70;49.90
85191;DHT22;75560;0.000;0.000;2024-01-30T04:21:24;18.70;49.90
85191;DHT22;75560;0.000;0.000;2024-01-30T04:23:51;18.70;49.90
85191;DHT22;75560;0.000;0.000;2024-01-30T04:26:17;18.70;49.90
85191;DHT22;75560;0.000;0.000;2024-01-30T04:28:44;18.70;49.90
85191;DHT22;75560;0.000;0.000;2024-01-30T04:31:10;18.70;50.00
85191;DHT22;75560;0.000;0.000;2024-01-30T04:33:36;18.70;50.00
85191;DHT22;75560;0.000;0.000;2024-01-30T04:36:02;18.70;50.00
85191;DHT22;75560;0.000;0.000;2024-01-30T04:38:28;18.60;49.90
85191;DHT22;75560;0.000;0.000;2024-01-30T04:40:54;18.60;50.00
85191;DHT22;75560;0.000;0.000;2024-01-30T04:43:19;18.70;50.00
85191;DHT22;75560;0.000;0.000;2024-01-30T04:45:45;18.70;49.90
85191;DHT22;75560;0.000;0.000;2024-01-30T04:48:10;18.70;49.90
85191;DHT22;75560;0.000;0.000;2024-01-30T04:50:36;18.70;49.90
85191;DHT22;75560;0.000;0.000;2024-01-30T04:53:01;18.70;49.90
85191;DHT22;75560;0.000;0.000;2024-01-30T04:55:27;18.70;49.90
85191;DHT22;75560;0.000;0.000;2024-01-30T04:57:53;18.70;49.90
85191;DHT22;75560;0.000;0.000;2024-01-30T05:00:18;18.70;49.90
85191;DHT22;75560;0.000;0.000;2024-01-30T05:02:44;18.80;49.70
85191;DHT22;75560;0.000;0.000;2024-01-30T05:05:09;18.70;49.80
85191;DHT22;75560;0.000;0.000;2024-01-30T05:07:36;18.70;49.90
85191;DHT22;75560;0.000;0.000;2024-01-30T05:10:02;18.70;49.90
85191;DHT22;75560;0.000;0.000;2024-01-30T05:12:28;18.70;50.00
85191;DHT22;75560;0.000;0.000;2024-01-30T05:14:54;18.70;50.00
85191;DHT22;75560;0.000;0.000;2024-01-30T05:17:19;18.70;49.90
85191;DHT22;75560;0.000;0.000;2024-01-30T05:19:45;18.70;49.90
85191;DHT22;75560;0.000;0.000;2024-01-30T05:22:11;18.80;49.80
85191;DHT22;75560;0.000;0.000;2024-01-30T05:24:41;18.80;49.80
85191;DHT22;75560;0.000;0.000;2024-01-30T05:27:07;18.80;49.80
85191;DHT22;75560;0.000;0.000;2024-01-30T05:29:32;18.70;49.90
85191;DHT22;75560;0.000;0.000;2024-01-30T05:31:58;18.80;49.90
85191;DHT22;75560;0.000;0.000;2024-01-30T05:34:24;18.80;49.80
85191;DHT22;75560;0.000;0.000;2024-01-30T05:36:49;18.80;49.80
85191;DHT22;75560;0.000;0.000;2024-01-30T05:39:15;18.80;49.80
85191;DHT22;75560;0.000;0.000;2024-01-30T05:41:40;18.80;49.80
85191;DHT22;75560;0.000;0.000;2024-01-30T05:44:06;18.70;49.80
85191;DHT22;75560;0.000;0.000;2024-01-30T05:46:32;18.80;49.70
85191;DHT22;75560;0.000;0.000;2024-01-30T05:48:58;18.80;49.70
85191;DHT22;75560;0.000;0.000;2024-01-30T05:51:24;18.90;49.70
85191;DHT22;75560;0.000;0.000;2024-01-30T05:53:49;18.90;49.70
85191;DHT22;75560;0.000;0.000;2024-01-30T05:56:15;18.90;49.40
85191;DHT22;75560;0.000;0.000;2024-01-30T05:58:41;19.00;49.50
85191;DHT22;75560;0.000;0.000;2024-01-30T06:01:08;19.00;49.30
85191;DHT22;75560;0.000;0.000;2024-01-30T06:03:34;19.00;49.30
85191;DHT22;75560;0.000;0.000;2024-01-30T06:06:00;19.00;49.20
85191;DHT22;75560;0.000;0.000;2024-01-30T06:08:26;19.00;49.30
85191;DHT22;75560;0.000;0.000;2024-01-30T06:10:51;19.00;49.20
85191;DHT22;75560;0.000;0.000;2024-01-30T06:13:17;19.10;49.20
85191;DHT22;75560;0.000;0.000;2024-01-30T06:15:43;19.10;49.20
85191;DHT22;75560;0.000;0.000;2024-01-30T06:18:09;19.10;49.20
85191;DHT22;75560;0.000;0.000;2024-01-30T06:20:34;19.20;49.10
85191;DHT22;75560;0.000;0.000;2024-01-30T06:23:00;19.20;48.90
85191;DHT22;75560;0.000;0.000;2024-01-30T06:25:26;19.20;48.90
85191;DHT22;75560;0.000;0.000;2024-01-30T06:27:51;19.20;49.20
85191;DHT22;75560;0.000;0.000;2024-01-30T06:30:17;19.20;49.10
85191;DHT22;75560;0.000;0.000;2024-01-30T06:32:43;19.30;49.20
85191;DHT22;75560;0.000;0.000;2024-01-30T06:35:10;19.30;49.40
85191;DHT22;75560;0.000;0.000;2024-01-30T06:37:36;19.40;49.60
85191;DHT22;75560;0.000;0.000;2024-01-30T06:40:02;19.30;49.70
85191;DHT22;75560;0.000;0.000;2024-01-30T06:42:30;19.30;49.70
85191;DHT22;75560;0.000;0.000;2024-01-30T06:44:55;19.30;48.80
85191;DHT22;75560;0.000;0.000;2024-01-30T06:47:21;19.30;47.80
85191;DHT22;75560;0.000;0.000;2024-01-30T06:49:46;19.30;47.10
85191;DHT22;75560;0.000;0.000;2024-01-30T06:52:12;19.30;48.10
85191;DHT22;75560;0.000;0.000;2024-01-30T06:54:37;19.20;48.10
85191;DHT22;75560;0.000;0.000;2024-01-30T06:57:03;19.30;48.40
85191;DHT22;75560;0.000;0.000;2024-01-30T06:59:29;19.30;48.70
85191;DHT22;75560;0.000;0.000;2024-01-30T07:01:54;19.30;48.70
85191;DHT22;75560;0.000;0.000;2024-01-30T07:04:20;19.30;48.90
85191;DHT22;75560;0.000;0.000;2024-01-30T07:06:45;19.30;48.80
85191;DHT22;75560;0.000;0.000;2024-01-30T07:09:12;19.30;49.10
85191;DHT22;75560;0.000;0.000;2024-01-30T07:11:38;19.30;49.10
85191;DHT22;75560;0.000;0.000;2024-01-30T07:14:04;19.30;49.30
85191;DHT22;75560;0.000;0.000;2024-01-30T07:16:30;19.30;49.50
85191;DHT22;75560;0.000;0.000;2024-01-30T07:18:56;19.20;49.50
85191;DHT22;75560;0.000;0.000;2024-01-30T07:21:22;19.20;49.90
85191;DHT22;75560;0.000;0.000;2024-01-30T07:23:53;19.20;50.30
85191;DHT22;75560;0.000;0.000;2024-01-30T07:26:19;19.20;50.20
85191;DHT22;75560;0.000;0.000;2024-01-30T07:28:44;19.20;50.40
85191;DHT22;75560;0.000;0.000;2024-01-30T07:31:10;19.20;50.40
85191;DHT22;75560;0.000;0.000;2024-01-30T07:33:36;19.20;50.50
85191;DHT22;75560;0.000;0.000;2024-01-30T07:36:01;19.20;50.40
85191;DHT22;75560;0.000;0.000;2024-01-30T07:38:27;19.10;50.50
85191;DHT22;75560;0.000;0.000;2024-01-30T07:40:52;19.10;50.80
85191;DHT22;75560;0.000;0.000;2024-01-30T07:43:18;19.10;50.50
85191;DHT22;75560;0.000;0.000;2024-01-30T07:45:45;19.40;49.00
85191;DHT22;75560;0.000;0.000;2024-01-30T07:48:11;19.40;47.30
85191;DHT22;75560;0.000;0.000;2024-01-30T07:50:36;19.30;47.30
85191;DHT22;75560;0.000;0.000;2024-01-30T07:53:02;19.30;46.40
85191;DHT22;75560;0.000;0.000;2024-01-30T07:55:27;19.20;46.30
85191;DHT22;75560;0.000;0.000;2024-01-30T07:57:54;19.20;45.60
85191;DHT22;75560;0.000;0.000;2024-01-30T08:00:21;19.20;45.40
85191;DHT22;75560;0.000;0.000;2024-01-30T08:02:47;19.20;45.10
85191;DHT22;75560;0.000;0.000;2024-01-30T08:05:13;19.30;46.60
85191;DHT22;75560;0.000;0.000;2024-01-30T08:07:40;19.30;45.90
85191;DHT22;75560;0.000;0.000;2024-01-30T08:10:07;19.30;45.50
85191;DHT22;75560;0.000;0.000;2024-01-30T08:12:32;19.40;45.70
85191;DHT22;75560;0.000;0.000;2024-01-30T08:14:58;19.40;45.70
85191;DHT22;75560;0.000;0.000;2024-01-30T08:17:24;19.40;45.80
85191;DHT22;75560;0.000;0.000;2024-01-30T08:19:49;19.50;46.50
85191;DHT22;75560;0.000;0.000;2024-01-30T08:22:15;19.40;46.90
85191;DHT22;75560;0.000;0.000;2024-01-30T08:24:41;19.50;46.90
85191;DHT22;75560;0.000;0.000;2024-01-30T08:27:07;19.50;46.80
85191;DHT22;75560;0.000;0.000;2024-01-30T08:29:35;19.50;46.20
85191;DHT22;75560;0.000;0.000;2024-01-30T08:32:01;19.40;46.10
85191;DHT22;75560;0.000;0.000;2024-01-30T08:34:27;19.40;46.50
85191;DHT22;75560;0.000;0.000;2024-01-30T08:36:52;19.50;47.00
85191;DHT22;75560;0.000;0.000;2024-01-30T08:39:18;19.40;47.20
85191;DHT22;75560;0.000;0.000;2024-01-30T08:41:44;19.50;47.80
85191;DHT22;75560;0.000;0.000;2024-01-30T08:44:10;19.50;48.90
85191;DHT22;75560;0.000;0.000;2024-01-30T08:46:36;19.50;48.60
85191;DHT22;75560;0.000;0.000;2024-01-30T08:49:03;19.50;48.90
85191;DHT22;75560;0.000;0.000;2024-01-30T08:51:31;19.50;49.60
85191;DHT22;75560;0.000;0.000;2024-01-30T08:53:57;19.60;49.60
85191;DHT22;75560;0.000;0.000;2024-01-30T08:56:22;19.60;50.00
85191;DHT22;75560;0.000;0.000;2024-01-30T08:58:48;19.60;50.40
85191;DHT22;75560;0.000;0.000;2024-01-30T09:01:14;19.60;51.10
85191;DHT22;75560;0.000;0.000;2024-01-30T09:03:40;19.60;51.10
85191;DHT22;75560;0.000;0.000;2024-01-30T09:06:13;19.70;51.40
85191;DHT22;75560;0.000;0.000;2024-01-30T09:08:39;19.80;51.80
85191;DHT22;75560;0.000;0.000;2024-01-30T09:11:15;19.80;52.10
85191;DHT22;75560;0.000;0.000;2024-01-30T09:13:41;19.80;54.30
85191;DHT22;75560;0.000;0.000;2024-01-30T09:16:07;19.80;53.80
85191;DHT22;75560;0.000;0.000;2024-01-30T09:18:33;19.80;53.90
85191;DHT22;75560;0.000;0.000;2024-01-30T09:20:59;19.80;54.70
85191;DHT22;75560;0.000;0.000;2024-01-30T09:23:25;19.80;54.70
85191;DHT22;75560;0.000;0.000;2024-01-30T09:25:50;19.80;54.90
85191;DHT22;75560;0.000;0.000;2024-01-30T09:28:17;19.90;54.70
85191;DHT22;75560;0.000;0.000;2024-01-30T09:30:43;19.80;54.80
85191;DHT22;75560;0.000;0.000;2024-01-30T09:33:09;19.80;55.10
85191;DHT22;75560;0.000;0.000;2024-01-30T09:35:35;19.90;54.80
85191;DHT22;75560;0.000;0.000;2024-01-30T09:38:02;19.90;54.40
85191;DHT22;75560;0.000;0.000;2024-01-30T09:40:27;19.90;53.80
85191;DHT22;75560;0.000;0.000;2024-01-30T09:42:54;19.90;54.20
85191;DHT22;75560;0.000;0.000;2024-01-30T09:45:23;20.10;53.60
85191;DHT22;75560;0.000;0.000;2024-01-30T09:47:49;20.20;53.00
85191;DHT22;75560;0.000;0.000;2024-01-30T09:50:15;20.20;52.70
85191;DHT22;75560;0.000;0.000;2024-01-30T09:52:42;20.20;52.40
85191;DHT22;75560;0.000;0.000;2024-01-30T09:55:09;20.20;52.20
85191;DHT22;75560;0.000;0.000;2024-01-30T09:57:36;20.20;51.90
85191;DHT22;75560;0.000;0.000;2024-01-30T10:00:03;20.20;51.80
85191;DHT22;75560;0.000;0.000;2024-01-30T10:02:31;20.20;51.70
85191;DHT22;75560;0.000;0.000;2024-01-30T10:04:56;20.30;51.50
85191;DHT22;75560;0.000;0.000;2024-01-30T10:07:22;20.30;51.30
85191;DHT22;75560;0.000;0.000;2024-01-30T10:09:48;20.30;51.20
85191;DHT22;75560;0.000;0.000;2024-01-30T10:12:15;20.30;51.70
85191;DHT22;75560;0.000;0.000;2024-01-30T10:14:41;20.30;50.90
85191;DHT22;75560;0.000;0.000;2024-01-30T10:17:11;20.50;50.60
85191;DHT22;75560;0.000;0.000;2024-01-30T10:19:41;20.60;50.10
85191;DHT22;75560;0.000;0.000;2024-01-30T10:22:07;20.50;49.90
85191;DHT22;75560;0.000;0.000;2024-01-30T10:24:36;20.40;50.00
85191;DHT22;75560;0.000;0.000;2024-01-30T10:27:02;20.40;50.20
85191;DHT22;75560;0.000;0.000;2024-01-30T10:29:28;20.40;50.30
85191;DHT22;75560;0.000;0.000;2024-01-30T10:31:58;20.40;50.20
85191;DHT22;75560;0.000;0.000;2024-01-30T10:34:24;20.40;50.20
85191;DHT22;75560;0.000;0.000;2024-01-30T10:36:50;20.30;50.20
85191;DHT22;75560;0.000;0.000;2024-01-30T10:39:21;20.30;50.30
85191;DHT22;75560;0.000;0.000;2024-01-30T10:41:47;20.20;50.10
85191;DHT22;75560;0.000;0.000;2024-01-30T10:44:18;20.20;50.20
85191;DHT22;75560;0.000;0.000;2024-01-30T10:46:53;20.10;50.30
85191;DHT22;75560;0.000;0.000;2024-01-30T10:49:22;20.00;50.40
85191;DHT22;75560;0.000;0.000;2024-01-30T10:51:49;19.90;50.60
85191;DHT22;75560;0.000;0.000;2024-01-30T10:54:15;19.90;50.60
85191;DHT22;75560;0.000;0.000;2024-01-30T10:56:43;19.80;50.60
85191;DHT22;75560;0.000;0.000;2024-01-30T10:59:10;19.90;50.70
85191;DHT22;75560;0.000;0.000;2024-01-30T11:01:38;19.80;50.60
85191;DHT22;75560;0.000;0.000;2024-01-30T11:04:04;19.90;50.60
85191;DHT22;75560;0.000;0.000;2024-01-30T11:06:30;19.90;50.50
85191;DHT22;75560;0.000;0.000;2024-01-30T11:09:03;19.90;50.50
85191;DHT22;75560;0.000;0.000;2024-01-30T11:11:55;19.90;50.30
85191;DHT22;75560;0.000;0.000;2024-01-30T11:14:24;19.90;50.30
85191;DHT22;75560;0.000;0.000;2024-01-30T11:16:50;19.90;50.30
85191;DHT22;75560;0.000;0.000;2024-01-30T11:19:22;19.90;50.20
85191;DHT22;75560;0.000;0.000;2024-01-30T11:21:50;19.90;50.20
85191;DHT22;75560;0.000;0.000;2024-01-30T11:24:22;19.90;50.30
85191;DHT22;75560;0.000;0.000;2024-01-30T11:26:55;19.90;50.10
85191;DHT22;75560;0.000;0.000;2024-01-30T11:29:27;19.90;50.20
85191;DHT22;75560;0.000;0.000;2024-01-30T11:31:58;19.90;50.20
85191;DHT22;75560;0.000;0.000;2024-01-30T11:34:24;19.90;50.00
85191;DHT22;75560;0.000;0.000;2024-01-30T11:37:02;20.00;49.80
85191;DHT22;75560;0.000;0.000;2024-01-30T11:39:32;20.00;49.70
85191;DHT22;75560;0.000;0.000;2024-01-30T11:41:58;20.00;49.70
85191;DHT22;75560;0.000;0.000;2024-01-30T11:44:25;20.00;49.10
85191;DHT22;75560;0.000;0.000;2024-01-30T11:46:51;19.90;48.30
85191;DHT22;75560;0.000;0.000;2024-01-30T11:49:17;19.90;48.10
85191;DHT22;75560;0.000;0.000;2024-01-30T11:51:45;19.90;48.20
85191;DHT22;75560;0.000;0.000;2024-01-30T11:54:11;19.90;48.00
85191;DHT22;75560;0.000;0.000;2024-01-30T11:56:37;19.90;47.90
85191;DHT22;75560;0.000;0.000;2024-01-30T11:59:04;19.90;47.70
85191;DHT22;75560;0.000;0.000;2024-01-30T12:01:30;19.90;47.50
85191;DHT22;75560;0.000;0.000;2024-01-30T12:03:57;20.00;47.50
85191;DHT22;75560;0.000;0.000;2024-01-30T12:06:23;19.90;47.40
85191;DHT22;75560;0.000;0.000;2024-01-30T12:08:59;19.90;47.40
85191;DHT22;75560;0.000;0.000;2024-01-30T12:11:27;19.90;47.40
85191;DHT22;75560;0.000;0.000;2024-01-30T12:13:53;19.90;47.40
85191;DHT22;75560;0.000;0.000;2024-01-30T12:16:19;19.90;47.30
85191;DHT22;75560;0.000;0.000;2024-01-30T12:18:45;19.90;47.30
85191;DHT22;75560;0.000;0.000;2024-01-30T12:21:11;20.00;47.20
85191;DHT22;75560;0.000;0.000;2024-01-30T12:23:36;20.00;47.20
85191;DHT22;75560;0.000;0.000;2024-01-30T12:26:03;20.00;47.10
85191;DHT22;75560;0.000;0.000;2024-01-30T12:28:33;20.00;47.10
85191;DHT22;75560;0.000;0.000;2024-01-30T12:31:02;19.80;47.20
85191;DHT22;75560;0.000;0.000;2024-01-30T12:33:29;19.80;46.40
85191;DHT22;75560;0.000;0.000;2024-01-30T12:36:01;19.80;46.70
85191;DHT22;75560;0.000;0.000;2024-01-30T12:38:27;19.80;46.90
85191;DHT22;75560;0.000;0.000;2024-01-30T12:40:56;19.80;47.10
85191;DHT22;75560;0.000;0.000;2024-01-30T12:43:25;19.90;47.20
85191;DHT22;75560;0.000;0.000;2024-01-30T12:45:52;20.00;47.20
85191;DHT22;75560;0.000;0.000;2024-01-30T12:48:18;20.00;47.50
85191;DHT22;75560;0.000;0.000;2024-01-30T12:50:43;20.10;47.60
85191;DHT22;75560;0.000;0.000;2024-01-30T12:53:09;20.10;47.60
85191;DHT22;75560;0.000;0.000;2024-01-30T12:55:35;20.10;47.60
85191;DHT22;75560;0.000;0.000;2024-01-30T12:58:01;20.20;47.60
85191;DHT22;75560;0.000;0.000;2024-01-30T13:00:26;20.20;47.60
85191;DHT22;75560;0.000;0.000;2024-01-30T13:02:52;20.20;48.20
85191;DHT22;75560;0.000;0.000;2024-01-30T13:05:18;20.20;47.60
85191;DHT22;75560;0.000;0.000;2024-01-30T13:07:43;20.20;47.60
85191;DHT22;75560;0.000;0.000;2024-01-30T13:10:09;20.20;47.50
85191;DHT22;75560;0.000;0.000;2024-01-30T13:12:35;20.20;47.60
85191;DHT22;75560;0.000;0.000;2024-01-30T13:15:01;20.20;47.60
85191;DHT22;75560;0.000;0.000;2024-01-30T13:17:27;20.20;47.60
85191;DHT22;75560;0.000;0.000;2024-01-30T13:19:53;20.30;47.70
85191;DHT22;75560;0.000;0.000;2024-01-30T13:22:19;20.30;47.80
85191;DHT22;75560;0.000;0.000;2024-01-30T13:24:47;20.30;48.60
85191;DHT22;75560;0.000;0.000;2024-01-30T13:27:12;20.20;47.90
85191;DHT22;75560;0.000;0.000;2024-01-30T13:29:38;20.20;48.10
85191;DHT22;75560;0.000;0.000;2024-01-30T13:32:04;20.20;48.10
85191;DHT22;75560;0.000;0.000;2024-01-30T13:34:30;20.20;47.90
85191;DHT22;75560;0.000;0.000;2024-01-30T13:36:55;20.10;48.20
85191;DHT22;75560;0.000;0.000;2024-01-30T13:39:21;20.10;48.10
85191;DHT22;75560;0.000;0.000;2024-01-30T13:41:47;20.10;48.10
85191;DHT22;75560;0.000;0.000;2024-01-30T13:44:14;20.10;48.00
85191;DHT22;75560;0.000;0.000;2024-01-30T13:46:41;20.10;48.00
85191;DHT22;75560;0.000;0.000;2024-01-30T13:49:07;20.10;48.00
85191;DHT22;75560;0.000;0.000;2024-01-30T13:51:32;20.10;47.90
85191;DHT22;75560;0.000;0.000;2024-01-30T13:53:58;20.10;47.80
85191;DHT22;75560;0.000;0.000;2024-01-30T13:56:23;20.10;47.90
85191;DHT22;75560;0.000;0.000;2024-01-30T13:58:50;20.10;47.80
85191;DHT22;75560;0.000;0.000;2024-01-30T14:01:16;20.10;47.90
85191;DHT22;75560;0.000;0.000;2024-01-30T14:03:41;20.10;47.80
85191;DHT22;75560;0.000;0.000;2024-01-30T14:06:07;20.10;47.80
85191;DHT22;75560;0.000;0.000;2024-01-30T14:08:33;20.10;48.50
85191;DHT22;75560;0.000;0.000;2024-01-30T14:10:58;20.10;47.70
85191;DHT22;75560;0.000;0.000;2024-01-30T14:13:24;20.10;47.70
85191;DHT22;75560;0.000;0.000;2024-01-30T14:15:51;20.10;47.70
85191;DHT22;75560;0.000;0.000;2024-01-30T14:18:17;20.10;47.60
85191;DHT22;75560;0.000;0.000;2024-01-30T14:20:43;20.10;47.60
85191;DHT22;75560;0.000;0.000;2024-01-30T14:23:08;20.10;48.40
85191;DHT22;75560;0.000;0.000;2024-01-30T14:25:34;20.10;48.40
85191;DHT22;75560;0.000;0.000;2024-01-30T14:27:59;20.10;47.50
85191;DHT22;75560;0.000;0.000;2024-01-30T14:30:25;20.00;46.60
85191;DHT22;75560;0.000;0.000;2024-01-30T14:32:50;19.90;46.60
85191;DHT22;75560;0.000;0.000;2024-01-30T14:35:16;19.90;46.80
85191;DHT22;75560;0.000;0.000;2024-01-30T14:37:41;20.00;46.80
85191;DHT22;75560;0.000;0.000;2024-01-30T14:40:07;20.00;46.80
85191;DHT22;75560;0.000;0.000;2024-01-30T14:42:33;20.00;46.80
85191;DHT22;75560;0.000;0.000;2024-01-30T14:44:59;20.10;46.90
85191;DHT22;75560;0.000;0.000;2024-01-30T14:47:25;20.10;46.90
85191;DHT22;75560;0.000;0.000;2024-01-30T14:49:51;20.10;46.90
85191;DHT22;75560;0.000;0.000;2024-01-30T14:52:17;20.10;46.90
85191;DHT22;75560;0.000;0.000;2024-01-30T14:54:43;20.10;46.90
85191;DHT22;75560;0.000;0.000;2024-01-30T14:57:09;20.10;46.90
85191;DHT22;75560;0.000;0.000;2024-01-30T14:59:35;20.10;46.90
85191;DHT22;75560;0.000;0.000;2024-01-30T15:02:00;20.10;47.00
85191;DHT22;75560;0.000;0.000;2024-01-30T15:04:26;20.10;47.00
85191;DHT22;75560;0.000;0.000;2024-01-30T15:06:52;20.10;46.90
85191;DHT22;75560;0.000;0.000;2024-01-30T15:09:18;20.00;46.60
85191;DHT22;75560;0.000;0.000;2024-01-30T15:11:46;20.00;47.00
85191;DHT22;75560;0.000;0.000;2024-01-30T15:14:12;20.00;47.40
85191;DHT22;75560;0.000;0.000;2024-01-30T15:16:38;20.10;47.90
85191;DHT22;75560;0.000;0.000;2024-01-30T15:19:04;20.10;49.00
85191;DHT22;75560;0.000;0.000;2024-01-30T15:21:33;20.10;49.00
85191;DHT22;75560;0.000;0.000;2024-01-30T15:23:59;20.00;48.20
85191;DHT22;75560;0.000;0.000;2024-01-30T15:26:24;20.00;49.00
85191;DHT22;75560;0.000;0.000;2024-01-30T15:28:51;20.00;49.40
85191;DHT22;75560;0.000;0.000;2024-01-30T15:31:16;20.00;49.40
85191;DHT22;75560;0.000;0.000;2024-01-30T15:33:42;20.00;49.40
85191;DHT22;75560;0.000;0.000;2024-01-30T15:36:08;20.00;49.30
85191;DHT22;75560;0.000;0.000;2024-01-30T15:38:34;20.10;49.60